Time;durP1;ratioP1;P1;durP2;ratioP2;P2;SDS_P1;SDS_P2;PMS_P1;PMS_P2;Temp;Humidity;BMP_temperature;BMP_pressure;BME280_temperature;BME280_humidity;BME280_pressure;Samples;Min_cycle;Max_cycle;Signal;HPM_P1;HPM_P2
2021/09/04 00:01:16;;;;;;;10.13;6.95;;;22.80;66.20;;;;;;6159831;28;83811;-63
2021/09/04 00:04:17;;;;;;;10.23;6.80;;;22.80;66.10;;;;;;6160557;28;81843;-63
2021/09/04 00:07:17;;;;;;;9.23;6.68;;;22.80;66.10;;;;;;6160558;28;81071;-63
2021/09/04 00:10:19;;;;;;;10.38;7.05;;;22.80;66.20;;;;;;6160391;28;80480;-62
2021/09/04 00:13:19;;;;;;;11.38;7.47;;;22.80;66.10;;;;;;6161335;28;80885;-63
2021/09/04 00:16:20;;;;;;;10.80;7.40;;;22.70;66.00;;;;;;6160926;28;80386;-63
2021/09/04 00:19:21;;;;;;;11.68;7.32;;;22.70;65.70;;;;;;6153123;28;81027;-62
2021/09/04 00:22:22;;;;;;;15.45;7.45;;;22.80;65.90;;;;;;6160734;28;81420;-63
2021/09/04 00:25:22;;;;;;;10.82;7.03;;;22.80;65.70;;;;;;6159732;28;80899;-63
2021/09/04 00:28:23;;;;;;;9.95;6.95;;;22.70;65.60;;;;;;6159102;28;83198;-63
2021/09/04 00:31:23;;;;;;;11.60;7.28;;;22.80;65.70;;;;;;6159567;28;81119;-62
2021/09/04 00:34:24;;;;;;;11.38;7.38;;;22.70;65.50;;;;;;6160352;28;80555;-62
2021/09/04 00:37:24;;;;;;;10.27;7.28;;;22.70;65.40;;;;;;6162573;28;80535;-62
2021/09/04 00:40:25;;;;;;;12.02;8.20;;;22.80;65.30;;;;;;6160894;28;81466;-63
2021/09/04 00:43:25;;;;;;;10.52;7.35;;;22.80;65.40;;;;;;6160569;28;80763;-63
2021/09/04 00:46:26;;;;;;;11.27;7.50;;;22.70;65.20;;;;;;6160518;28;80905;-63
2021/09/04 00:49:26;;;;;;;13.00;7.05;;;22.80;65.10;;;;;;6160325;28;83063;-62
2021/09/04 00:52:27;;;;;;;12.68;8.07;;;22.70;65.10;;;;;;6161468;28;80588;-62
2021/09/04 00:55:27;;;;;;;10.32;7.57;;;22.80;65.00;;;;;;6159097;28;80952;-62
2021/09/04 00:58:29;;;;;;;9.55;6.97;;;22.70;65.00;;;;;;6157301;28;82442;-62
2021/09/04 01:01:29;;;;;;;11.73;7.50;;;22.70;65.10;;;;;;6161105;28;81807;-61
2021/09/04 01:04:31;;;;;;;11.63;7.25;;;22.70;64.80;;;;;;6161413;28;80636;-61
2021/09/04 01:07:31;;;;;;;10.93;6.75;;;22.70;64.80;;;;;;6158219;28;82096;-61
2021/09/04 01:10:32;;;;;;;10.68;7.05;;;22.70;64.80;;;;;;6160913;28;81412;-61
2021/09/04 01:13:33;;;;;;;11.02;7.20;;;22.70;64.80;;;;;;6159842;28;82054;-61
2021/09/04 01:16:33;;;;;;;10.38;6.95;;;22.70;65.60;;;;;;6158594;28;81453;-61
2021/09/04 01:19:34;;;;;;;9.93;7.13;;;22.70;64.90;;;;;;6159771;28;80804;-61
2021/09/04 01:22:34;;;;;;;12.82;7.75;;;22.70;64.90;;;;;;6159686;28;80025;-61
2021/09/04 01:25:35;;;;;;;11.80;7.47;;;22.70;64.80;;;;;;6159349;28;80920;-61
2021/09/04 01:28:35;;;;;;;10.95;7.40;;;22.70;64.90;;;;;;6160419;28;80439;-61
2021/09/04 01:31:36;;;;;;;9.77;7.03;;;22.70;64.80;;;;;;6159573;28;80733;-61
2021/09/04 01:34:36;;;;;;;10.05;7.57;;;22.70;64.80;;;;;;6160358;28;81460;-60
2021/09/04 01:37:37;;;;;;;12.40;7.57;;;22.70;64.80;;;;;;6161854;28;80618;-61
2021/09/04 01:40:37;;;;;;;11.40;7.72;;;22.70;64.60;;;;;;6159100;28;80822;-61
2021/09/04 01:43:38;;;;;;;9.82;7.00;;;22.70;64.60;;;;;;6158075;28;81747;-63
2021/09/04 01:46:38;;;;;;;11.38;7.97;;;22.70;64.50;;;;;;6159101;28;81725;-61
2021/09/04 01:49:39;;;;;;;10.18;7.00;;;22.70;65.10;;;;;;6158814;28;80470;-62
2021/09/04 01:52:39;;;;;;;11.82;7.95;;;22.70;64.60;;;;;;6159709;28;80512;-61
2021/09/04 01:55:40;;;;;;;9.32;6.70;;;22.70;64.50;;;;;;6157053;28;83022;-62
2021/09/04 01:58:40;;;;;;;12.60;8.20;;;22.70;64.30;;;;;;6158817;28;81052;-62
2021/09/04 02:01:41;;;;;;;8.60;6.60;;;22.70;64.20;;;;;;6157583;28;81241;-62
2021/09/04 02:04:41;;;;;;;11.88;7.75;;;22.70;64.30;;;;;;6159916;28;82245;-62
2021/09/04 02:07:42;;;;;;;9.40;6.93;;;22.70;64.10;;;;;;6158598;28;81542;-62
2021/09/04 02:10:42;;;;;;;10.65;6.75;;;22.70;64.20;;;;;;6159784;28;81512;-62
2021/09/04 02:13:43;;;;;;;10.55;6.53;;;22.70;64.20;;;;;;6160042;28;80958;-62
2021/09/04 02:16:43;;;;;;;9.75;7.07;;;22.70;64.20;;;;;;6160579;28;80839;-62
2021/09/04 02:19:44;;;;;;;10.13;7.03;;;22.70;64.10;;;;;;6150985;28;81383;-62
2021/09/04 02:22:45;;;;;;;10.65;7.00;;;22.70;64.20;;;;;;6159157;28;80535;-62
2021/09/04 02:25:46;;;;;;;11.48;6.90;;;22.70;64.00;;;;;;6157523;28;81354;-62
2021/09/04 02:28:46;;;;;;;11.55;7.53;;;22.70;64.10;;;;;;6159775;28;80439;-62
2021/09/04 02:31:48;;;;;;;12.00;7.43;;;22.70;64.30;;;;;;6160342;28;85863;-62
2021/09/04 02:34:49;;;;;;;10.95;7.15;;;22.70;64.00;;;;;;6158912;28;80043;-62
2021/09/04 02:37:51;;;;;;;10.52;7.45;;;22.70;64.00;;;;;;6159134;28;81103;-61
2021/09/04 02:40:51;;;;;;;11.05;7.05;;;22.70;64.20;;;;;;6156707;28;82986;-60
2021/09/04 02:43:53;;;;;;;11.50;7.55;;;22.70;64.90;;;;;;6157104;28;82086;-61
2021/09/04 02:46:54;;;;;;;11.27;6.68;;;22.70;64.10;;;;;;6157674;28;80452;-61
2021/09/04 02:49:57;;;;;;;10.43;7.50;;;22.70;64.00;;;;;;6158927;28;81953;-62
2021/09/04 02:52:58;;;;;;;11.88;6.50;;;22.70;64.00;;;;;;6159087;28;81662;-61
2021/09/04 02:55:59;;;;;;;10.18;7.28;;;22.70;64.00;;;;;;6156764;28;81596;-62
2021/09/04 02:59:00;;;;;;;11.85;7.00;;;22.70;64.00;;;;;;6160242;28;80389;-61
2021/09/04 03:02:01;;;;;;;9.88;6.88;;;22.60;63.90;;;;;;6159349;28;81720;-62
2021/09/04 03:05:03;;;;;;;16.50;7.45;;;22.60;63.80;;;;;;6157600;28;81517;-62
2021/09/04 03:08:03;;;;;;;11.60;6.93;;;22.70;63.90;;;;;;6157755;28;80495;-62
2021/09/04 03:11:05;;;;;;;10.55;7.03;;;22.70;63.60;;;;;;6157015;28;80619;-62
2021/09/04 03:14:06;;;;;;;10.07;6.82;;;22.60;63.60;;;;;;6158276;28;80519;-62
2021/09/04 03:17:08;;;;;;;10.57;7.07;;;22.70;63.90;;;;;;6156385;28;80960;-62
2021/09/04 03:20:09;;;;;;;9.93;6.57;;;22.60;63.50;;;;;;6156548;28;81227;-61
2021/09/04 03:23:10;;;;;;;9.70;7.15;;;22.60;63.30;;;;;;6162355;28;80620;-61
2021/09/04 03:26:11;;;;;;;10.55;6.72;;;22.60;63.50;;;;;;6159468;28;80111;-62
2021/09/04 03:29:11;;;;;;;11.15;7.53;;;22.70;63.30;;;;;;6162619;28;80547;-62
2021/09/04 03:32:13;;;;;;;10.35;7.03;;;22.60;63.20;;;;;;6160508;28;81742;-62
2021/09/04 03:35:13;;;;;;;10.88;7.00;;;22.60;63.60;;;;;;6163007;28;80489;-63
2021/09/04 03:38:15;;;;;;;9.18;6.60;;;22.60;63.40;;;;;;6158447;28;81325;-63
2021/09/04 03:41:16;;;;;;;9.70;6.45;;;22.70;63.40;;;;;;6160856;28;80694;-63
2021/09/04 03:44:17;;;;;;;9.05;6.38;;;22.60;63.30;;;;;;6160698;28;80743;-63
2021/09/04 03:47:19;;;;;;;9.95;7.32;;;22.60;63.30;;;;;;6161433;28;81572;-63
2021/09/04 03:50:19;;;;;;;10.18;7.30;;;22.70;63.20;;;;;;6161266;28;81558;-63
2021/09/04 03:53:20;;;;;;;10.40;7.07;;;22.60;63.20;;;;;;6161368;28;80777;-63
2021/09/04 03:56:22;;;;;;;10.48;7.28;;;22.70;63.10;;;;;;6160651;28;81571;-63
2021/09/04 03:59:24;;;;;;;15.63;6.68;;;22.60;62.80;;;;;;6156553;28;82116;-63
2021/09/04 04:02:27;;;;;;;10.38;7.05;;;22.70;63.20;;;;;;6153890;28;80621;-63
2021/09/04 04:05:29;;;;;;;11.68;6.95;;;22.70;62.90;;;;;;6160531;28;84775;-63
2021/09/04 04:08:30;;;;;;;9.07;6.53;;;22.60;63.10;;;;;;6158527;28;81318;-63
2021/09/04 04:11:31;;;;;;;10.65;6.82;;;22.70;63.00;;;;;;6160756;28;80445;-64
2021/09/04 04:14:33;;;;;;;10.20;6.80;;;22.60;63.00;;;;;;6159992;28;81831;-63
2021/09/04 04:17:34;;;;;;;10.07;7.20;;;22.70;63.30;;;;;;6159188;28;81577;-64
2021/09/04 04:20:36;;;;;;;9.73;6.28;;;22.70;63.30;;;;;;6156793;28;83101;-64
2021/09/04 04:23:37;;;;;;;11.45;7.55;;;22.70;62.90;;;;;;6161334;28;80532;-62
2021/09/04 04:26:37;;;;;;;12.18;7.93;;;22.60;63.20;;;;;;6160226;28;80774;-63
2021/09/04 04:29:38;;;;;;;8.55;6.38;;;22.60;63.10;;;;;;6161113;28;80374;-64
2021/09/04 04:32:38;;;;;;;11.05;6.72;;;22.60;63.00;;;;;;6162782;28;81595;-63
2021/09/04 04:35:40;;;;;;;12.15;7.15;;;22.60;63.70;;;;;;6160670;28;80336;-64
2021/09/04 04:38:40;;;;;;;10.02;6.78;;;22.60;63.30;;;;;;6162104;28;81485;-63
2021/09/04 04:41:41;;;;;;;13.57;7.03;;;22.60;63.40;;;;;;6162717;28;80515;-63
2021/09/04 04:44:42;;;;;;;12.57;7.60;;;22.70;64.30;;;;;;6160721;28;81160;-63
2021/09/04 04:47:43;;;;;;;11.50;7.00;;;22.70;63.70;;;;;;6158769;28;80591;-62
2021/09/04 04:50:43;;;;;;;11.57;6.50;;;22.70;63.30;;;;;;6155683;28;80888;-62
2021/09/04 04:53:44;;;;;;;9.73;6.55;;;22.70;63.20;;;;;;6159664;28;81863;-62
2021/09/04 04:56:46;;;;;;;10.60;7.35;;;22.60;63.30;;;;;;6160236;28;81384;-62
2021/09/04 04:59:47;;;;;;;10.05;7.28;;;22.60;63.20;;;;;;6142776;28;81778;-62
2021/09/04 05:02:48;;;;;;;10.98;7.03;;;22.60;64.00;;;;;;6161381;28;86083;-62
2021/09/04 05:05:49;;;;;;;9.98;6.68;;;22.60;63.60;;;;;;6160228;28;80675;-62
2021/09/04 05:08:50;;;;;;;10.30;7.10;;;22.70;63.90;;;;;;6159661;28;81371;-63
2021/09/04 05:11:50;;;;;;;10.48;7.32;;;22.70;64.10;;;;;;6157977;28;80260;-61
2021/09/04 05:14:51;;;;;;;14.07;7.43;;;22.70;64.90;;;;;;6160144;28;80207;-62
2021/09/04 05:17:53;;;;;;;10.82;7.15;;;22.70;65.00;;;;;;6157652;28;80461;-62
2021/09/04 05:20:54;;;;;;;13.23;7.65;;;22.70;65.30;;;;;;6159233;28;80595;-61
2021/09/04 05:23:57;;;;;;;10.18;6.65;;;22.70;65.20;;;;;;6160599;28;80654;-61
2021/09/04 05:26:57;;;;;;;13.77;7.05;;;22.70;65.60;;;;;;6159287;28;81203;-61
2021/09/04 05:29:58;;;;;;;9.43;6.28;;;22.70;65.00;;;;;;6159802;28;80342;-63
2021/09/04 05:32:59;;;;;;;12.18;7.10;;;22.70;65.00;;;;;;6158492;28;81030;-62
2021/09/04 05:35:59;;;;;;;10.68;6.60;;;22.80;65.00;;;;;;6159320;28;81391;-62
2021/09/04 05:39:00;;;;;;;15.07;8.32;;;22.70;64.40;;;;;;6158075;28;80467;-62
2021/09/04 05:42:00;;;;;;;9.98;6.85;;;22.70;63.90;;;;;;6160532;28;80551;-62
2021/09/04 05:45:01;;;;;;;15.73;7.68;;;22.70;63.30;;;;;;6157973;28;80440;-61
2021/09/04 05:48:01;;;;;;;15.57;8.77;;;22.70;62.20;;;;;;6157884;28;80910;-61
2021/09/04 05:51:02;;;;;;;13.27;8.45;;;22.70;62.30;;;;;;6158938;28;80739;-61
2021/09/04 05:54:02;;;;;;;14.15;8.48;;;22.70;62.20;;;;;;6158676;28;81519;-61
2021/09/04 05:57:03;;;;;;;15.73;8.38;;;22.70;62.90;;;;;;6157753;28;80946;-61
2021/09/04 06:00:03;;;;;;;18.08;8.52;;;22.60;62.40;;;;;;6160028;28;81523;-60
2021/09/04 06:03:12;;;;;;;17.40;8.70;;;22.60;62.20;;;;;;6157918;28;81574;-61
2021/09/04 06:06:12;;;;;;;12.70;8.57;;;22.60;62.00;;;;;;6156460;28;83543;-62
2021/09/04 06:09:13;;;;;;;12.95;8.27;;;22.60;62.00;;;;;;6150382;28;81874;-61
2021/09/04 06:12:13;;;;;;;16.38;8.60;;;22.70;61.60;;;;;;6157769;28;81464;-61
2021/09/04 06:15:14;;;;;;;13.95;8.65;;;22.70;61.40;;;;;;6155416;28;80913;-61
2021/09/04 06:18:14;;;;;;;14.80;8.15;;;22.70;61.50;;;;;;6158197;28;80763;-61
2021/09/04 06:21:15;;;;;;;16.40;8.82;;;22.70;61.50;;;;;;6155410;28;80189;-62
2021/09/04 06:24:15;;;;;;;14.30;7.90;;;22.70;60.50;;;;;;6158665;28;80856;-63
2021/09/04 06:27:16;;;;;;;15.30;8.15;;;22.70;60.00;;;;;;6157449;28;81029;-63
2021/09/04 06:30:16;;;;;;;13.98;8.77;;;22.80;59.70;;;;;;6155838;28;81512;-62
2021/09/04 06:33:17;;;;;;;15.75;9.13;;;22.80;60.20;;;;;;6157475;28;80525;-63
2021/09/04 06:36:17;;;;;;;13.95;8.65;;;22.70;59.90;;;;;;6138341;28;82623;-62
2021/09/04 06:39:18;;;;;;;12.90;8.00;;;22.70;59.90;;;;;;6157580;28;80608;-64
2021/09/04 06:42:18;;;;;;;15.85;9.50;;;22.80;60.20;;;;;;6158358;28;80369;-62
2021/09/04 06:45:19;;;;;;;15.70;8.77;;;22.70;60.10;;;;;;6160164;28;81493;-62
2021/09/04 06:48:19;;;;;;;14.98;9.10;;;22.80;60.20;;;;;;6157614;28;81351;-63
2021/09/04 06:51:20;;;;;;;17.02;8.95;;;22.80;60.40;;;;;;6156253;28;81429;-63
2021/09/04 06:54:24;;;;;;;18.67;9.13;;;22.80;60.30;;;;;;6149377;28;80888;-63
2021/09/04 06:57:24;;;;;;;17.05;8.93;;;22.80;60.50;;;;;;6150021;28;80799;-62
2021/09/04 07:00:25;;;;;;;14.82;9.18;;;22.80;60.40;;;;;;6159017;28;81920;-63
2021/09/04 07:03:25;;;;;;;15.70;8.45;;;22.80;60.50;;;;;;6158230;28;80923;-63
2021/09/04 07:06:25;;;;;;;21.38;9.25;;;22.80;60.40;;;;;;6157278;28;81113;-63
2021/09/04 07:09:26;;;;;;;13.90;8.45;;;22.80;60.50;;;;;;6159068;28;80803;-63
2021/09/04 07:12:27;;;;;;;18.33;9.93;;;22.80;60.50;;;;;;6158317;28;81113;-63
2021/09/04 07:15:27;;;;;;;15.10;9.27;;;22.80;60.70;;;;;;6154801;28;82383;-64
2021/09/04 07:18:28;;;;;;;18.33;9.40;;;22.80;60.70;;;;;;6157501;28;80431;-63
2021/09/04 07:21:28;;;;;;;17.38;9.35;;;22.90;60.80;;;;;;6158228;28;81670;-63
2021/09/04 07:24:29;;;;;;;13.95;9.45;;;22.90;60.80;;;;;;6158894;28;81432;-63
2021/09/04 07:27:29;;;;;;;18.30;9.35;;;22.90;60.70;;;;;;6145201;28;81657;-63
2021/09/04 07:30:30;;;;;;;16.77;9.23;;;22.90;60.80;;;;;;6155732;28;81318;-63
2021/09/04 07:33:30;;;;;;;16.80;10.15;;;22.90;60.60;;;;;;6156719;28;80494;-63
2021/09/04 07:36:31;;;;;;;22.60;10.23;;;22.90;61.00;;;;;;6153347;28;83738;-63
2021/09/04 07:39:31;;;;;;;16.13;9.60;;;22.90;60.90;;;;;;6153326;28;84196;-63
2021/09/04 07:42:32;;;;;;;16.38;10.57;;;22.90;60.40;;;;;;6157800;28;82173;-64
2021/09/04 07:45:32;;;;;;;18.58;9.75;;;22.90;60.60;;;;;;6155214;28;83245;-62
2021/09/04 07:48:33;;;;;;;19.15;9.98;;;22.90;60.80;;;;;;6156810;28;83332;-62
2021/09/04 07:51:34;;;;;;;15.93;9.90;;;22.90;60.80;;;;;;6151029;28;84691;-62
2021/09/04 07:54:34;;;;;;;21.65;9.65;;;22.90;60.90;;;;;;6157843;28;83319;-62
2021/09/04 07:57:34;;;;;;;18.05;10.55;;;23.00;60.70;;;;;;6159712;28;82078;-62
2021/09/04 08:00:35;;;;;;;16.95;10.63;;;23.00;60.70;;;;;;6162165;28;83135;-61
2021/09/04 08:03:35;;;;;;;16.90;10.23;;;23.00;60.70;;;;;;6150353;28;84099;-62
2021/09/04 08:06:36;;;;;;;17.85;10.70;;;23.00;60.70;;;;;;6153179;28;85748;-61
2021/09/04 08:09:36;;;;;;;20.58;10.95;;;23.00;60.90;;;;;;6155304;28;86050;-62
2021/09/04 08:12:37;;;;;;;18.80;10.93;;;23.00;60.70;;;;;;6158136;28;83290;-62
2021/09/04 08:15:37;;;;;;;17.02;10.10;;;23.00;60.70;;;;;;6156636;28;83879;-62
2021/09/04 08:18:38;;;;;;;19.55;11.55;;;23.00;60.70;;;;;;6157332;28;86639;-62
2021/09/04 08:21:38;;;;;;;16.92;10.88;;;23.00;60.70;;;;;;6157393;28;83100;-62
2021/09/04 08:24:39;;;;;;;23.38;11.57;;;23.00;60.80;;;;;;6156153;28;86051;-62
2021/09/04 08:27:39;;;;;;;20.90;11.73;;;23.00;62.00;;;;;;6149134;28;83224;-62
2021/09/04 08:30:40;;;;;;;23.05;11.45;;;23.00;60.90;;;;;;6156784;28;84056;-63
2021/09/04 08:33:40;;;;;;;19.17;11.55;;;23.00;60.90;;;;;;6157201;28;83513;-62
2021/09/04 08:36:41;;;;;;;18.48;11.27;;;23.10;60.90;;;;;;6157381;28;83119;-62
2021/09/04 08:39:41;;;;;;;21.80;12.43;;;23.10;60.90;;;;;;6157956;28;83187;-63
2021/09/04 08:42:42;;;;;;;19.83;12.25;;;23.10;60.90;;;;;;6157728;28;84305;-62
2021/09/04 08:45:42;;;;;;;22.58;11.82;;;23.10;60.80;;;;;;6155665;28;83446;-62
2021/09/04 08:48:43;;;;;;;22.08;12.95;;;23.10;60.90;;;;;;6157989;28;83239;-62
2021/09/04 08:51:43;;;;;;;16.58;11.57;;;23.20;61.50;;;;;;6152680;28;83175;-61
2021/09/04 08:54:44;;;;;;;23.40;12.13;;;23.20;60.60;;;;;;6155740;28;83665;-62
2021/09/04 08:57:45;;;;;;;19.13;12.48;;;23.20;60.50;;;;;;6157648;28;83391;-62
2021/09/04 09:00:47;;;;;;;21.77;12.75;;;23.20;60.70;;;;;;6156498;28;83221;-62
2021/09/04 09:03:49;;;;;;;23.67;13.30;;;23.20;60.70;;;;;;6157262;28;83766;-62
2021/09/04 09:06:49;;;;;;;21.00;11.63;;;23.20;60.60;;;;;;6156738;28;82835;-61
2021/09/04 09:09:51;;;;;;;22.02;13.50;;;23.10;60.60;;;;;;6157395;28;83217;-62
2021/09/04 09:12:52;;;;;;;19.40;13.27;;;23.10;60.60;;;;;;6154527;28;83166;-62
2021/09/04 09:15:55;;;;;;;21.40;12.48;;;23.10;60.60;;;;;;6154645;28;83878;-62
2021/09/04 09:18:56;;;;;;;24.90;14.55;;;23.10;60.80;;;;;;6156428;28;83217;-63
2021/09/04 09:21:57;;;;;;;28.90;14.50;;;23.10;63.00;;;;;;6156348;28;85014;-62
2021/09/04 09:24:57;;;;;;;26.40;15.30;;;23.10;63.90;;;;;;6156050;28;83223;-62
2021/09/04 09:27:58;;;;;;;24.52;16.13;;;23.10;62.60;;;;;;6157397;28;83562;-62
2021/09/04 09:31:00;;;;;;;27.52;18.48;;;23.10;63.20;;;;;;6156634;28;82982;-62
2021/09/04 09:34:00;;;;;;;36.38;21.55;;;23.20;67.20;;;;;;6155712;28;84520;-62
2021/09/04 09:37:01;;;;;;;55.55;30.38;;;23.20;70.40;;;;;;6154995;28;84009;-61
2021/09/04 09:40:01;;;;;;;67.80;31.50;;;23.20;70.80;;;;;;6154483;28;84210;-61
2021/09/04 09:43:02;;;;;;;67.47;31.40;;;23.20;71.80;;;;;;6155849;28;83007;-62
2021/09/04 09:46:02;;;;;;;82.07;35.42;;;23.20;69.00;;;;;;6155090;28;83206;-63
2021/09/04 09:49:04;;;;;;;72.18;34.42;;;23.10;67.70;;;;;;6155362;28;83094;-62
2021/09/04 09:52:04;;;;;;;65.97;32.22;;;23.20;65.90;;;;;;6135836;28;84120;-63
2021/09/04 09:55:05;;;;;;;71.63;35.88;;;23.20;64.80;;;;;;6156573;28;83107;-61
2021/09/04 09:58:05;;;;;;;54.38;29.65;;;23.20;63.80;;;;;;6149543;28;83337;-62
2021/09/04 10:01:05;;;;;;;61.08;28.27;;;23.20;63.80;;;;;;6154210;28;84576;-62
2021/09/04 10:04:06;;;;;;;47.47;25.85;;;23.30;63.20;;;;;;6155058;28;83190;-62
2021/09/04 10:07:06;;;;;;;40.05;22.73;;;23.30;62.60;;;;;;6143527;28;83671;-62
2021/09/04 10:10:07;;;;;;;34.28;20.65;;;23.30;61.80;;;;;;6153097;28;84176;-61
2021/09/04 10:13:07;;;;;;;32.15;19.40;;;23.30;60.70;;;;;;6154773;28;83375;-63
2021/09/04 10:16:08;;;;;;;32.75;18.95;;;23.30;60.40;;;;;;6146981;28;84924;-63
2021/09/04 10:19:08;;;;;;;33.83;18.90;;;23.40;59.50;;;;;;6150609;28;83654;-62
2021/09/04 10:22:09;;;;;;;36.03;19.75;;;23.40;58.80;;;;;;6154408;28;84166;-62
2021/09/04 10:25:09;;;;;;;39.80;21.13;;;23.40;58.70;;;;;;6152984;28;84386;-62
2021/09/04 10:28:10;;;;;;;35.08;19.63;;;23.40;58.70;;;;;;6152417;28;83482;-63
2021/09/04 10:31:10;;;;;;;34.08;19.63;;;23.30;58.50;;;;;;6154202;28;83541;-62
2021/09/04 10:34:11;;;;;;;32.38;19.55;;;23.30;58.40;;;;;;6153585;28;82858;-61
2021/09/04 10:37:11;;;;;;;33.38;18.73;;;23.30;58.50;;;;;;6154647;28;83501;-62
2021/09/04 10:40:13;;;;;;;33.55;18.77;;;23.30;58.90;;;;;;6154812;28;83928;-64
2021/09/04 10:43:14;;;;;;;25.77;17.30;;;23.30;58.80;;;;;;6154101;28;84620;-62
2021/09/04 10:46:15;;;;;;;27.73;16.73;;;23.30;59.20;;;;;;6155526;28;84385;-64
2021/09/04 10:49:16;;;;;;;27.25;16.45;;;23.30;59.40;;;;;;6151578;28;84498;-62
2021/09/04 10:52:16;;;;;;;25.25;15.27;;;23.30;60.60;;;;;;6147167;28;83669;-63
2021/09/04 10:55:17;;;;;;;26.55;14.98;;;23.30;59.90;;;;;;6153669;28;83504;-64
2021/09/04 10:58:18;;;;;;;25.55;15.77;;;23.30;60.70;;;;;;6150871;28;83444;-62
2021/09/04 11:01:19;;;;;;;27.83;16.27;;;23.40;60.80;;;;;;6155616;28;82961;-63
2021/09/04 11:04:19;;;;;;;25.33;15.60;;;23.40;60.70;;;;;;6151848;28;86031;-63
2021/09/04 11:07:20;;;;;;;24.73;14.48;;;23.40;60.80;;;;;;6156467;28;83380;-63
2021/09/04 11:10:20;;;;;;;21.25;15.13;;;23.50;60.80;;;;;;6153865;28;83206;-63
2021/09/04 11:13:20;;;;;;;25.38;14.73;;;23.50;60.90;;;;;;6152415;28;82707;-63
2021/09/04 11:16:21;;;;;;;27.48;14.43;;;23.50;61.00;;;;;;6144916;28;83941;-63
2021/09/04 11:19:21;;;;;;;25.88;15.70;;;23.50;60.30;;;;;;6151566;28;83266;-64
2021/09/04 11:22:22;;;;;;;25.02;15.75;;;23.50;60.40;;;;;;6152868;28;83207;-63
2021/09/04 11:25:22;;;;;;;22.77;15.45;;;23.50;59.70;;;;;;6153466;28;83351;-62
2021/09/04 11:28:23;;;;;;;22.75;15.07;;;23.50;58.80;;;;;;6153416;28;83398;-61
2021/09/04 11:31:23;;;;;;;26.65;16.00;;;23.50;58.20;;;;;;6156659;28;83547;-62
2021/09/04 11:34:24;;;;;;;24.55;15.05;;;23.50;57.70;;;;;;6154027;28;83321;-63
2021/09/04 11:37:24;;;;;;;27.02;15.90;;;23.50;57.80;;;;;;6152927;28;83899;-62
2021/09/04 11:40:27;;;;;;;29.55;16.75;;;23.50;58.10;;;;;;6155354;28;83182;-63
2021/09/04 11:43:28;;;;;;;26.02;15.70;;;23.50;57.40;;;;;;6140223;28;84456;-62
2021/09/04 11:46:29;;;;;;;26.58;17.08;;;23.50;57.80;;;;;;6159578;28;83599;-62
2021/09/04 11:49:30;;;;;;;29.50;17.02;;;23.50;57.30;;;;;;6159472;28;82966;-62
2021/09/04 11:52:34;;;;;;;26.85;16.70;;;23.50;56.40;;;;;;6157598;28;82994;-63
2021/09/04 11:55:35;;;;;;;26.00;16.23;;;23.50;56.60;;;;;;6157738;28;83858;-63
2021/09/04 11:58:35;;;;;;;25.75;17.60;;;23.50;56.60;;;;;;6157241;28;83111;-63
2021/09/04 12:01:37;;;;;;;24.85;17.42;;;23.40;56.20;;;;;;6160263;28;84218;-63
2021/09/04 12:04:37;;;;;;;30.48;17.15;;;23.40;56.40;;;;;;6153822;28;83492;-63
2021/09/04 12:07:38;;;;;;;35.00;16.23;;;23.40;56.60;;;;;;6150306;28;83841;-63
2021/09/04 12:10:39;;;;;;;22.00;14.95;;;23.40;57.00;;;;;;6155397;28;83452;-63
2021/09/04 12:13:39;;;;;;;26.13;16.77;;;23.40;56.80;;;;;;6158502;28;83265;-62
2021/09/04 12:16:40;;;;;;;23.85;16.20;;;23.50;56.70;;;;;;6156944;28;83105;-62
2021/09/04 12:19:40;;;;;;;24.10;16.58;;;23.50;56.40;;;;;;6157951;28;83608;-63
2021/09/04 12:22:40;;;;;;;25.50;17.17;;;23.50;56.60;;;;;;6158113;28;83148;-64
2021/09/04 12:25:41;;;;;;;25.92;16.98;;;23.50;56.50;;;;;;6157461;28;83510;-63
2021/09/04 12:28:42;;;;;;;23.13;15.85;;;23.50;56.00;;;;;;6154104;28;83437;-64
2021/09/04 12:31:42;;;;;;;29.67;17.10;;;23.40;55.80;;;;;;6155587;28;83201;-63
2021/09/04 12:34:43;;;;;;;23.65;16.75;;;23.40;55.60;;;;;;6157146;28;83283;-63
2021/09/04 12:37:43;;;;;;;29.25;17.45;;;23.40;55.20;;;;;;6157399;28;84325;-63
2021/09/04 12:40:43;;;;;;;27.25;16.25;;;23.30;55.40;;;;;;6156913;28;83483;-62
2021/09/04 12:43:44;;;;;;;26.52;16.65;;;23.30;55.00;;;;;;6157413;28;84412;-63
2021/09/04 12:46:45;;;;;;;21.27;15.18;;;23.40;55.00;;;;;;6156230;28;83917;-64
2021/09/04 12:49:46;;;;;;;24.85;16.80;;;23.30;54.90;;;;;;6156962;28;83816;-63
2021/09/04 12:52:47;;;;;;;26.25;17.02;;;23.40;55.00;;;;;;6154075;28;83986;-63
2021/09/04 12:55:47;;;;;;;26.00;15.73;;;23.40;54.80;;;;;;6155165;28;83928;-62
2021/09/04 12:58:48;;;;;;;26.42;15.52;;;23.30;54.90;;;;;;6156298;28;83247;-63
2021/09/04 13:01:48;;;;;;;24.33;15.93;;;23.40;55.30;;;;;;6158500;28;83590;-62
2021/09/04 13:04:49;;;;;;;23.90;15.85;;;23.40;55.40;;;;;;6157105;28;83228;-63
2021/09/04 13:07:49;;;;;;;28.30;15.80;;;23.40;55.30;;;;;;6156324;28;82903;-63
2021/09/04 13:10:50;;;;;;;27.13;15.30;;;23.40;55.20;;;;;;6156877;28;84483;-63
2021/09/04 13:13:50;;;;;;;22.67;15.27;;;23.40;55.10;;;;;;6156176;28;83764;-62
2021/09/04 13:16:51;;;;;;;26.48;15.38;;;23.40;54.80;;;;;;6156163;28;82896;-63
2021/09/04 13:19:51;;;;;;;23.42;15.95;;;23.30;54.50;;;;;;6155679;28;84187;-62
2021/09/04 13:22:52;;;;;;;23.60;15.55;;;23.40;54.40;;;;;;6155201;28;83464;-62
2021/09/04 13:25:52;;;;;;;27.63;15.93;;;23.30;54.00;;;;;;6155998;28;83478;-63
2021/09/04 13:28:53;;;;;;;22.33;15.00;;;23.30;54.40;;;;;;6152074;28;85049;-64
2021/09/04 13:31:53;;;;;;;28.88;15.82;;;23.30;54.00;;;;;;6156495;28;83868;-62
2021/09/04 13:34:54;;;;;;;24.17;15.00;;;23.30;53.30;;;;;;6155577;28;83259;-63
2021/09/04 13:37:54;;;;;;;25.73;15.98;;;23.30;53.20;;;;;;6156306;28;83605;-62
2021/09/04 13:40:55;;;;;;;27.35;15.43;;;23.30;53.20;;;;;;6155836;28;84003;-63
2021/09/04 13:43:55;;;;;;;23.38;14.20;;;23.30;53.60;;;;;;6153511;28;83956;-63
2021/09/04 13:46:56;;;;;;;20.55;14.20;;;23.30;53.80;;;;;;6154448;28;83100;-63
2021/09/04 13:49:56;;;;;;;24.00;14.95;;;23.30;53.80;;;;;;6155024;28;85197;-63
2021/09/04 13:52:57;;;;;;;24.30;15.25;;;23.30;53.70;;;;;;6155661;28;83091;-63
2021/09/04 13:55:57;;;;;;;25.02;15.05;;;23.30;53.80;;;;;;6154046;28;83896;-63
2021/09/04 13:58:58;;;;;;;23.33;13.75;;;23.40;54.30;;;;;;6155414;28;83234;-65
2021/09/04 14:01:58;;;;;;;23.73;14.98;;;23.30;54.50;;;;;;6157155;28;83468;-64
2021/09/04 14:04:59;;;;;;;21.10;12.52;;;23.30;54.90;;;;;;6154866;28;83552;-63
2021/09/04 14:07:59;;;;;;;20.77;13.57;;;23.40;55.20;;;;;;6161029;28;83948;-63
2021/09/04 14:11:00;;;;;;;22.13;13.70;;;23.30;55.30;;;;;;6156960;28;83716;-63
2021/09/04 14:14:00;;;;;;;20.05;12.48;;;23.40;55.60;;;;;;6155496;28;83337;-65
2021/09/04 14:17:01;;;;;;;20.25;13.05;;;23.30;55.50;;;;;;6154913;28;82724;-65
2021/09/04 14:20:02;;;;;;;20.70;14.10;;;23.40;55.80;;;;;;6153157;28;84151;-64
2021/09/04 14:23:02;;;;;;;21.30;13.70;;;23.40;55.90;;;;;;6153093;28;83169;-64
2021/09/04 14:26:03;;;;;;;19.08;13.93;;;23.40;56.00;;;;;;6154933;28;83507;-64
2021/09/04 14:29:03;;;;;;;17.70;11.85;;;23.40;56.30;;;;;;6155024;28;83210;-62
2021/09/04 14:32:04;;;;;;;20.58;12.82;;;23.40;56.30;;;;;;6153624;28;84347;-64
2021/09/04 14:35:04;;;;;;;19.27;12.75;;;23.40;56.50;;;;;;6153562;28;83182;-64
2021/09/04 14:38:05;;;;;;;19.92;13.30;;;23.40;56.50;;;;;;6155827;28;85223;-63
2021/09/04 14:41:05;;;;;;;26.48;13.50;;;23.40;56.50;;;;;;6152521;28;83194;-63
2021/09/04 14:44:06;;;;;;;19.98;12.77;;;23.40;56.60;;;;;;6154569;28;85060;-63
2021/09/04 14:47:07;;;;;;;23.73;12.98;;;23.40;56.50;;;;;;6154173;28;83158;-62
2021/09/04 14:50:11;;;;;;;20.02;12.88;;;23.40;56.50;;;;;;6154662;28;83393;-63
2021/09/04 14:53:12;;;;;;;20.67;13.23;;;23.40;56.30;;;;;;6148356;28;83082;-63
2021/09/04 14:56:12;;;;;;;20.45;13.13;;;23.40;56.30;;;;;;6150573;28;84635;-64
2021/09/04 14:59:13;;;;;;;19.50;12.95;;;23.40;56.30;;;;;;6150473;28;85693;-64
2021/09/04 15:02:13;;;;;;;18.20;12.70;;;23.40;56.40;;;;;;6153188;28;84023;-64
2021/09/04 15:05:14;;;;;;;23.52;14.27;;;23.40;56.40;;;;;;6152115;28;84267;-63
2021/09/04 15:08:14;;;;;;;18.38;13.32;;;23.40;56.40;;;;;;6154104;28;85010;-63
2021/09/04 15:11:15;;;;;;;23.52;13.35;;;23.40;56.30;;;;;;6153169;28;83889;-65
2021/09/04 15:14:15;;;;;;;20.45;13.95;;;23.40;56.30;;;;;;6151503;28;83462;-63
2021/09/04 15:17:16;;;;;;;20.25;12.57;;;23.50;56.50;;;;;;6151653;28;83827;-62
2021/09/04 15:20:16;;;;;;;20.13;13.50;;;23.40;56.20;;;;;;6154995;28;83430;-62
2021/09/04 15:23:17;;;;;;;18.63;13.25;;;23.40;56.30;;;;;;6153321;28;83322;-62